createdAt,value
2023-03-20T06:26:02.725Z,7.88
2023-03-20T06:28:38.999Z,7.83
2023-03-20T06:31:10.023Z,8.15
2023-03-20T06:33:38.176Z,8.27
2023-03-20T06:36:06.573Z,8.34
2023-03-20T06:38:35.199Z,8.64
2023-03-20T06:41:09.984Z,8.60
2023-03-20T06:43:39.619Z,8.63
2023-03-20T06:46:08.531Z,8.84
2023-03-20T06:48:37.039Z,9.13
2023-03-20T06:51:07.876Z,9.06
2023-03-20T06:53:44.291Z,9.10
2023-03-20T06:56:19.524Z,8.84
2023-03-20T06:58:47.337Z,8.84
2023-03-20T07:01:17.268Z,9.32
2023-03-20T07:03:45.271Z,9.50
2023-03-20T07:06:14.079Z,9.59
2023-03-20T07:08:42.749Z,9.53
2023-03-20T07:11:11.113Z,9.35
2023-03-20T07:13:40.407Z,9.44
2023-03-20T07:16:18.579Z,9.33
2023-03-20T07:18:47.284Z,9.43
2023-03-20T07:21:17.270Z,9.23
2023-03-20T07:23:45.091Z,9.67
2023-03-20T07:26:13.066Z,9.99
2023-03-20T07:28:42.202Z,10.04
2023-03-20T07:31:23.858Z,10.13
2023-03-20T07:33:57.996Z,9.78
2023-03-20T07:36:25.812Z,9.76
2023-03-20T07:38:53.628Z,9.41
2023-03-20T07:41:21.443Z,9.58
2023-03-20T07:44:01.202Z,9.59
2023-03-20T07:46:47.109Z,9.50
2023-03-20T07:49:18.322Z,10.03
2023-03-20T07:51:47.014Z,9.78
2023-03-20T07:54:15.047Z,9.60
2023-03-20T07:56:42.924Z,9.94
2023-03-20T07:59:12.783Z,9.94
2023-03-20T08:01:40.706Z,10.35
2023-03-20T08:04:08.756Z,10.25
2023-03-20T08:06:36.697Z,10.43
2023-03-20T08:09:04.764Z,10.45
2023-03-20T08:11:34.329Z,10.47
2023-03-20T08:14:02.755Z,10.70
2023-03-20T08:16:32.057Z,10.42
2023-03-20T08:19:01.494Z,10.72
2023-03-20T08:21:29.415Z,10.56
2023-03-20T08:23:57.208Z,10.84
2023-03-20T08:26:25.074Z,10.87
2023-03-20T08:28:53.442Z,10.84
2023-03-20T08:31:21.539Z,10.66
2023-03-20T08:33:50.770Z,10.92
2023-03-20T08:36:20.465Z,10.80
2023-03-20T08:38:48.694Z,10.93
2023-03-20T08:41:16.786Z,11.17
2023-03-20T08:43:44.547Z,11.01
2023-03-20T08:46:12.747Z,10.97
2023-03-20T08:48:40.652Z,11.01
2023-03-20T08:51:10.020Z,10.98
2023-03-20T08:53:37.757Z,11.27
2023-03-20T08:56:06.338Z,11.29
2023-03-20T08:58:34.102Z,11.48
2023-03-20T09:01:05.318Z,11.36
2023-03-20T09:03:33.046Z,11.24
2023-03-20T09:06:00.911Z,11.49
2023-03-20T09:08:29.984Z,11.16
2023-03-20T09:10:57.729Z,11.18
2023-03-20T09:13:27.859Z,11.18
2023-03-20T09:15:56.203Z,11.41
2023-03-20T09:18:24.116Z,11.20
2023-03-20T09:20:52.057Z,11.73
2023-03-20T09:23:19.939Z,11.63
2023-03-20T09:25:49.133Z,11.62
2023-03-20T09:28:17.033Z,11.48
2023-03-20T09:30:45.831Z,11.54
2023-03-20T09:33:14.890Z,11.58
2023-03-20T09:35:43.762Z,11.85
2023-03-20T09:38:12.391Z,11.46
2023-03-20T09:40:50.714Z,12.01
2023-03-20T09:43:26.721Z,11.71
2023-03-20T09:45:58.823Z,11.52
2023-03-20T09:48:30.170Z,11.78
2023-03-20T09:51:00.419Z,12.26
2023-03-20T09:53:30.384Z,12.34
2023-03-20T09:55:59.588Z,12.36
2023-03-20T09:58:28.360Z,12.24
2023-03-20T10:00:57.759Z,12.19
2023-03-20T10:03:27.658Z,12.29
2023-03-20T10:05:57.685Z,12.18
2023-03-20T10:08:28.625Z,11.96
2023-03-20T10:11:03.488Z,11.86
2023-03-20T10:13:40.086Z,12.02
2023-03-20T10:16:12.366Z,12.33
2023-03-20T10:18:41.788Z,11.99
2023-03-20T10:21:14.145Z,12.25
2023-03-20T10:23:43.233Z,11.95
2023-03-20T10:26:13.107Z,12.25
2023-03-20T10:28:42.447Z,12.14
2023-03-20T10:31:32.819Z,11.78
2023-03-20T10:34:06.953Z,12.08
2023-03-20T10:36:41.671Z,11.91
2023-03-20T10:39:11.717Z,11.83
2023-03-20T10:41:43.138Z,11.97
2023-03-20T10:44:12.056Z,12.50
2023-03-20T10:46:41.916Z,12.59
2023-03-20T10:49:13.628Z,12.60
2023-03-20T10:51:43.207Z,12.27
2023-03-20T10:54:18.419Z,12.58
2023-03-20T10:56:48.426Z,12.78
2023-03-20T10:59:19.247Z,12.70
2023-03-20T11:01:46.976Z,12.53
2023-03-20T11:04:14.731Z,12.55
2023-03-20T11:06:44.647Z,12.59
2023-03-20T11:09:13.789Z,12.55
2023-03-20T11:11:44.380Z,12.31
2023-03-20T11:14:18.738Z,12.35
2023-03-20T11:16:48.826Z,12.06
2023-03-20T11:19:17.500Z,12.03
2023-03-20T11:21:46.901Z,12.34
2023-03-20T11:24:26.688Z,12.26
2023-03-20T11:26:54.441Z,12.19
2023-03-20T11:29:26.117Z,11.91
2023-03-20T11:31:53.921Z,12.26
2023-03-20T11:34:26.616Z,12.45
2023-03-20T11:37:09.626Z,12.71
2023-03-20T11:39:40.063Z,12.89
2023-03-20T11:42:22.897Z,13.09
2023-03-20T11:44:59.508Z,13.32
2023-03-20T11:47:28.672Z,13.13
2023-03-20T11:49:57.170Z,13.30
2023-03-20T11:52:26.083Z,13.41
2023-03-20T11:54:55.413Z,13.12
2023-03-20T11:57:36.222Z,13.22
2023-03-20T12:00:08.049Z,12.51
2023-03-20T12:02:36.243Z,12.82
2023-03-20T12:05:04.510Z,11.50
2023-03-20T12:07:33.778Z,11.23
2023-03-20T12:10:03.806Z,10.90
2023-03-20T12:12:37.684Z,10.69
2023-03-20T12:15:11.652Z,10.55
2023-03-20T12:17:52.136Z,10.25
2023-03-20T12:20:29.465Z,10.05
2023-03-20T12:23:01.659Z,9.98
2023-03-20T12:25:30.776Z,9.92
2023-03-20T12:28:03.696Z,9.87
2023-03-20T12:30:39.407Z,9.91
2023-03-20T12:33:09.181Z,9.99
2023-03-20T12:35:37.959Z,9.98
2023-03-20T12:38:07.936Z,10.05
2023-03-20T12:40:44.109Z,10.10
2023-03-20T12:43:15.077Z,10.12
2023-03-20T12:45:47.485Z,10.05
2023-03-20T12:49:01.209Z,9.93
2023-03-20T12:51:34.544Z,9.96
2023-03-20T12:54:09.541Z,10.17
2023-03-20T12:56:49.271Z,10.30
2023-03-20T12:59:19.483Z,10.26
2023-03-20T13:01:49.933Z,10.33
2023-03-20T13:04:25.634Z,10.33
2023-03-20T13:06:54.472Z,10.60
2023-03-20T13:09:45.391Z,10.60
2023-03-20T13:12:18.029Z,10.82
2023-03-20T13:14:48.260Z,11.03
2023-03-20T13:17:19.956Z,11.25
2023-03-20T13:19:51.013Z,11.52
2023-03-20T13:22:20.380Z,11.63
2023-03-20T13:24:49.286Z,11.89
2023-03-20T13:27:23.775Z,11.33
2023-03-20T13:29:54.165Z,11.13
2023-03-20T13:32:28.647Z,11.69
2023-03-20T13:35:17.622Z,11.89
2023-03-20T13:37:46.648Z,11.77
2023-03-20T13:40:16.664Z,11.76
2023-03-20T13:42:46.966Z,11.61
2023-03-20T13:45:22.895Z,11.56
2023-03-20T13:47:52.182Z,11.76
2023-03-20T13:50:36.010Z,11.92
2023-03-20T13:53:07.330Z,12.05
2023-03-20T13:55:38.529Z,11.83
2023-03-20T13:58:15.929Z,12.06
2023-03-20T14:00:44.333Z,11.78
2023-03-20T14:03:19.703Z,11.45
2023-03-20T14:05:47.642Z,11.75
2023-03-20T14:08:23.786Z,11.81
2023-03-20T14:10:56.592Z,12.03
2023-03-20T14:13:26.740Z,11.84
2023-03-20T14:15:56.711Z,11.42
2023-03-20T14:18:26.554Z,11.55
2023-03-20T14:20:56.148Z,11.62
2023-03-20T14:23:31.397Z,11.80
2023-03-20T14:26:00.322Z,11.92
2023-03-20T14:28:29.149Z,12.01
2023-03-20T14:31:12.689Z,11.89
2023-03-20T14:33:44.674Z,12.33
2023-03-20T14:36:17.697Z,12.31
2023-03-20T14:38:53.330Z,12.15
2023-03-20T14:41:24.649Z,11.95
2023-03-20T14:44:03.770Z,12.19
2023-03-20T14:46:35.027Z,11.91
2023-03-20T14:49:16.910Z,11.96
2023-03-20T14:51:45.981Z,11.91
2023-03-20T14:54:27.697Z,12.19
2023-03-20T14:56:55.516Z,11.86
2023-03-20T14:59:23.627Z,12.30
2023-03-20T15:01:57.179Z,11.72
2023-03-20T15:04:29.692Z,11.65
2023-03-20T15:06:59.333Z,11.73
2023-03-20T15:09:28.040Z,11.82
2023-03-20T15:11:59.629Z,11.88
2023-03-20T15:14:28.098Z,11.76
2023-03-20T15:16:59.317Z,11.85
2023-03-20T15:19:28.523Z,11.67
2023-03-20T15:21:56.566Z,11.78
2023-03-20T15:24:24.657Z,11.65
2023-03-20T15:26:53.541Z,11.85
2023-03-20T15:29:21.368Z,11.70
2023-03-20T15:32:06.420Z,11.91
2023-03-20T15:34:41.104Z,11.63
2023-03-20T15:37:12.336Z,11.67
2023-03-20T15:39:43.172Z,11.56
2023-03-20T15:42:11.871Z,11.16
2023-03-20T15:44:40.504Z,11.38
2023-03-20T15:47:12.584Z,11.50
2023-03-20T15:49:42.320Z,11.30
2023-03-20T15:52:23.641Z,11.33
2023-03-20T15:54:51.421Z,11.41
2023-03-20T15:57:21.344Z,11.66
2023-03-20T15:59:49.144Z,11.42
2023-03-20T16:02:16.873Z,11.17
2023-03-20T16:04:47.695Z,11.12
2023-03-20T16:07:21.615Z,10.71
2023-03-20T16:09:50.362Z,10.86
2023-03-20T16:12:18.450Z,10.62
2023-03-20T16:14:47.702Z,10.59
2023-03-20T16:17:15.687Z,10.59
2023-03-20T16:19:43.595Z,10.94
2023-03-20T16:22:18.517Z,10.79
2023-03-20T16:24:47.527Z,10.79
2023-03-20T16:27:19.201Z,10.82
2023-03-20T16:29:46.982Z,10.64
2023-03-20T16:32:19.707Z,11.05
2023-03-20T16:34:49.613Z,11.28
2023-03-20T16:37:25.900Z,11.20
2023-03-20T16:40:04.871Z,11.06
2023-03-20T16:42:32.654Z,10.87
2023-03-20T16:45:00.410Z,10.92
2023-03-20T16:47:34.911Z,10.72
2023-03-20T16:50:22.178Z,10.83
2023-03-20T16:52:52.422Z,10.76
2023-03-20T16:55:25.611Z,10.85
2023-03-20T16:57:56.537Z,11.14
2023-03-20T17:00:27.353Z,11.15
2023-03-20T17:03:00.750Z,11.22
2023-03-20T17:05:36.876Z,11.18
2023-03-20T17:08:07.910Z,11.20
2023-03-20T17:10:35.918Z,10.98
2023-03-20T17:13:03.847Z,10.69
2023-03-20T17:15:31.693Z,10.73
2023-03-20T17:18:00.466Z,10.70
2023-03-20T17:20:30.793Z,10.61
2023-03-20T17:22:58.592Z,10.74
2023-03-20T17:25:27.942Z,10.84
2023-03-20T17:27:55.959Z,10.78
2023-03-20T17:30:24.986Z,11.03
2023-03-20T17:32:52.867Z,10.77
2023-03-20T17:35:20.732Z,10.38
2023-03-20T17:37:49.217Z,10.64
2023-03-20T17:40:19.174Z,10.48
2023-03-20T17:42:48.719Z,10.49
2023-03-20T17:45:20.325Z,10.45
2023-03-20T17:47:48.549Z,10.41
2023-03-20T17:50:19.885Z,10.75
2023-03-20T17:52:47.645Z,10.44
2023-03-20T17:55:15.777Z,10.25
2023-03-20T17:57:43.563Z,10.56
2023-03-20T18:04:22.328Z,10.30
2023-03-20T18:06:50.135Z,10.39
2023-03-20T18:09:17.906Z,10.25
2023-03-20T18:11:45.793Z,10.25
2023-03-20T18:14:17.891Z,10.26
2023-03-20T18:16:45.708Z,10.45
2023-03-20T18:19:20.447Z,10.13
2023-03-20T18:21:48.384Z,10.21
2023-03-20T18:24:16.116Z,10.19
2023-03-20T18:26:46.067Z,10.24
2023-03-20T18:29:14.056Z,10.14
2023-03-20T18:31:43.706Z,10.04
2023-03-20T18:34:11.620Z,10.14
2023-03-20T18:36:40.782Z,9.98
2023-03-20T18:39:08.508Z,9.99
2023-03-20T18:41:39.128Z,9.92
2023-03-20T18:44:06.831Z,9.96
2023-03-20T18:46:37.521Z,10.05
2023-03-20T18:49:13.183Z,10.04
2023-03-20T18:51:42.332Z,9.87
2023-03-20T18:54:10.769Z,9.57
2023-03-20T18:56:38.689Z,9.62
2023-03-20T19:03:12.573Z,9.39
2023-03-20T19:05:40.518Z,9.63
2023-03-20T19:08:11.433Z,9.66
2023-03-20T19:10:40.154Z,9.66
2023-03-20T19:13:08.183Z,9.60
2023-03-20T19:15:39.152Z,9.37
2023-03-20T19:18:07.822Z,9.43
2023-03-20T19:20:39.157Z,9.58
2023-03-20T19:23:10.570Z,9.80
2023-03-20T19:25:38.528Z,9.41
2023-03-20T19:28:11.538Z,9.47
2023-03-20T19:30:44.766Z,9.59
2023-03-20T19:33:16.618Z,9.61
2023-03-20T19:36:05.732Z,9.47
2023-03-20T19:38:35.053Z,9.30
2023-03-20T19:41:19.913Z,9.26
2023-03-20T19:43:52.846Z,9.57
2023-03-20T19:46:41.128Z,9.41
2023-03-20T19:49:17.785Z,9.43
2023-03-20T19:51:49.004Z,9.39
2023-03-20T19:54:21.412Z,9.36
2023-03-20T19:56:49.286Z,9.25
2023-03-20T19:59:17.355Z,9.26
2023-03-20T20:01:47.428Z,9.35
2023-03-20T20:04:15.483Z,9.27
2023-03-20T20:06:43.189Z,9.50
2023-03-20T20:09:10.904Z,8.84
2023-03-20T20:11:40.131Z,9.27
2023-03-20T20:14:14.663Z,9.28
2023-03-20T20:16:43.749Z,9.24
2023-03-20T20:19:11.698Z,9.22
2023-03-20T20:24:32.941Z,9.48
2023-03-20T20:27:18.543Z,9.52
2023-03-20T20:29:52.409Z,9.39
2023-03-20T20:32:21.283Z,9.68
2023-03-20T20:38:30.699Z,9.42
2023-03-20T20:40:32.986Z,9.49
2023-03-20T20:43:02.972Z,9.64
2023-03-20T20:45:36.574Z,9.62
2023-03-20T20:48:06.075Z,9.75
2023-03-20T20:50:35.832Z,9.55
2023-03-20T20:53:03.757Z,9.55
2023-03-20T20:55:35.754Z,9.51
2023-03-20T20:58:07.937Z,9.43
2023-03-20T21:00:48.994Z,9.39
2023-03-20T21:03:19.002Z,9.12
2023-03-20T21:05:46.823Z,9.37
2023-03-20T21:08:15.263Z,9.61
2023-03-20T21:10:45.267Z,9.69
2023-03-20T21:13:14.787Z,9.44
2023-03-20T21:15:45.589Z,9.53
2023-03-20T21:18:13.539Z,9.29
2023-03-20T21:20:43.645Z,9.40
2023-03-20T21:23:11.725Z,9.21
2023-03-20T21:25:41.334Z,9.20
2023-03-20T21:28:10.250Z,9.19
2023-03-20T21:30:49.983Z,9.33
2023-03-20T21:33:29.557Z,9.22
2023-03-20T21:35:57.310Z,9.24
2023-03-20T21:41:13.326Z,9.28
2023-03-20T21:43:43.370Z,9.18
2023-03-20T21:52:41.889Z,9.31
2023-03-20T21:58:10.382Z,9.24
2023-03-20T22:03:11.039Z,9.05
2023-03-20T22:17:51.095Z,9.20
2023-03-20T23:40:17.826Z,9.14
2023-03-20T23:42:50.036Z,9.06
2023-03-20T23:45:20.808Z,9.11
2023-03-20T23:47:51.610Z,8.85
2023-03-20T23:50:39.812Z,8.75
2023-03-20T23:53:19.938Z,8.95
2023-03-20T23:55:48.711Z,8.47
2023-03-20T23:58:25.065Z,8.50
